createdAt,value
2022-12-17T00:00:41.804Z,954.64
2022-12-17T00:01:41.702Z,954.66
2022-12-17T00:02:41.837Z,954.59
2022-12-17T00:03:42.187Z,954.7
2022-12-17T00:04:41.666Z,954.68
2022-12-17T00:05:41.611Z,954.66
2022-12-17T00:06:41.589Z,954.71
2022-12-17T00:07:41.562Z,954.73
2022-12-17T00:08:41.543Z,954.69
2022-12-17T00:09:43.574Z,954.73
2022-12-17T00:10:41.498Z,954.7
2022-12-17T00:11:41.472Z,954.72
2022-12-17T00:12:41.450Z,954.74
2022-12-17T00:13:41.431Z,954.74
2022-12-17T00:14:41.406Z,954.75
2022-12-17T00:15:41.411Z,954.79
2022-12-17T00:16:41.419Z,954.83
2022-12-17T00:17:41.337Z,954.88
2022-12-17T00:18:41.314Z,954.89
2022-12-17T00:19:41.294Z,954.9
2022-12-17T00:20:41.291Z,954.91
2022-12-17T00:21:41.246Z,954.93
2022-12-17T00:22:41.223Z,954.96
2022-12-17T00:23:41.200Z,954.91
2022-12-17T00:24:41.176Z,954.91
2022-12-17T00:25:42.045Z,954.91
2022-12-17T00:26:41.131Z,954.94
2022-12-17T00:27:41.118Z,954.93
2022-12-17T00:28:41.087Z,954.93
2022-12-17T00:29:41.067Z,954.94
2022-12-17T00:30:41.039Z,954.93
2022-12-17T00:31:41.101Z,954.95
2022-12-17T00:32:40.993Z,954.94
2022-12-17T00:33:40.976Z,954.96
2022-12-17T00:34:40.949Z,954.96
2022-12-17T00:35:40.927Z,954.98
2022-12-17T00:36:41.024Z,955.02
2022-12-17T00:37:40.884Z,955.03
2022-12-17T00:38:40.858Z,955.02
2022-12-17T00:39:40.840Z,955.03
2022-12-17T00:40:40.814Z,955.05
2022-12-17T00:41:40.791Z,955.06
2022-12-17T00:42:40.770Z,955.03
2022-12-17T00:43:40.748Z,955.06
2022-12-17T00:44:40.724Z,955.08
2022-12-17T00:45:40.700Z,955.04
2022-12-17T00:46:40.721Z,955.03
2022-12-17T00:47:40.653Z,955.05
2022-12-17T00:48:40.633Z,955.01
2022-12-17T00:49:40.610Z,955
2022-12-17T00:50:40.586Z,955.04
2022-12-17T00:51:40.563Z,955.03
2022-12-17T00:52:40.569Z,955.04
2022-12-17T00:53:40.518Z,955.05
2022-12-17T00:54:40.494Z,955.04
2022-12-17T00:55:40.473Z,955.04
2022-12-17T00:56:40.451Z,955.07
2022-12-17T00:57:40.429Z,955.08
2022-12-17T00:58:40.405Z,955.11
2022-12-17T00:59:40.381Z,955.07
2022-12-17T01:00:40.400Z,955.03
2022-12-17T01:01:40.514Z,955.09
2022-12-17T01:02:40.462Z,955.1
2022-12-17T01:03:40.289Z,955.1
2022-12-17T01:04:40.271Z,955.17
2022-12-17T01:05:40.244Z,955.16
2022-12-17T01:06:40.227Z,955.24
2022-12-17T01:07:40.199Z,955.19
2022-12-17T01:08:40.207Z,955.22
2022-12-17T01:09:40.152Z,955.24
2022-12-17T01:10:40.135Z,955.23
2022-12-17T01:11:40.111Z,955.26
2022-12-17T01:12:40.089Z,955.28
2022-12-17T01:13:40.068Z,955.3
2022-12-17T01:14:40.043Z,955.27
2022-12-17T01:15:40.022Z,955.3
2022-12-17T01:16:40.042Z,955.3
2022-12-17T01:17:39.975Z,955.26
2022-12-17T01:18:39.952Z,955.28
2022-12-17T01:19:39.929Z,955.28
2022-12-17T01:20:39.905Z,955.32
2022-12-17T01:21:39.882Z,955.31
2022-12-17T01:22:39.864Z,955.34
2022-12-17T01:23:39.923Z,955.39
2022-12-17T01:24:39.843Z,955.36
2022-12-17T01:25:39.790Z,955.42
2022-12-17T01:26:39.774Z,955.45
2022-12-17T01:27:39.744Z,955.43
2022-12-17T01:28:39.724Z,955.42
2022-12-17T01:29:39.699Z,955.45
2022-12-17T01:30:39.689Z,955.44
2022-12-17T01:31:39.672Z,955.42
2022-12-17T01:32:39.632Z,955.45
2022-12-17T01:33:39.845Z,955.49
2022-12-17T01:34:39.590Z,955.43
2022-12-17T01:35:39.564Z,955.47
2022-12-17T01:36:39.543Z,955.46
2022-12-17T01:37:39.518Z,955.46
2022-12-17T01:38:39.495Z,955.48
2022-12-17T01:39:39.475Z,955.46
2022-12-17T01:40:39.476Z,955.47
2022-12-17T01:41:39.427Z,955.51
2022-12-17T01:42:39.405Z,955.51
2022-12-17T01:43:39.382Z,955.51
2022-12-17T01:44:39.363Z,955.54
2022-12-17T01:45:39.367Z,955.54
2022-12-17T01:46:39.314Z,955.53
2022-12-17T01:47:39.291Z,955.55
2022-12-17T01:48:39.270Z,955.55
2022-12-17T01:49:39.243Z,955.59
2022-12-17T01:50:39.476Z,955.58
2022-12-17T01:51:39.447Z,955.6
2022-12-17T01:52:39.428Z,955.59
2022-12-17T01:53:39.543Z,955.59
2022-12-17T01:54:39.381Z,955.62
2022-12-17T01:55:39.363Z,955.64
2022-12-17T01:56:39.360Z,955.63
2022-12-17T01:57:39.313Z,955.62
2022-12-17T01:58:39.289Z,955.66
2022-12-17T01:59:39.267Z,955.66
2022-12-17T02:00:39.252Z,955.68
2022-12-17T02:01:39.380Z,955.69
2022-12-17T02:02:39.344Z,955.69
2022-12-17T02:03:39.384Z,955.72
2022-12-17T02:04:39.151Z,955.73
2022-12-17T02:05:39.133Z,955.72
2022-12-17T02:06:39.107Z,955.76
2022-12-17T02:07:39.187Z,955.86
2022-12-17T02:08:39.061Z,955.86
2022-12-17T02:09:39.042Z,955.81
2022-12-17T02:10:39.016Z,955.82
2022-12-17T02:11:38.995Z,955.82
2022-12-17T02:12:38.997Z,955.86
2022-12-17T02:13:39.094Z,955.85
2022-12-17T02:14:38.927Z,955.88
2022-12-17T02:15:38.904Z,955.85
2022-12-17T02:16:38.888Z,955.89
2022-12-17T02:17:38.857Z,955.96
2022-12-17T02:18:38.835Z,955.95
2022-12-17T02:19:38.814Z,955.97
2022-12-17T02:20:38.795Z,955.95
2022-12-17T02:21:38.768Z,955.98
2022-12-17T02:22:38.743Z,955.94
2022-12-17T02:23:39.004Z,955.99
2022-12-17T02:24:38.698Z,955.95
2022-12-17T02:25:38.677Z,955.99
2022-12-17T02:26:38.651Z,956.01
2022-12-17T02:27:38.628Z,955.98
2022-12-17T02:28:38.628Z,955.95
2022-12-17T02:29:38.587Z,955.98
2022-12-17T02:30:38.562Z,956
2022-12-17T02:31:38.587Z,955.98
2022-12-17T02:32:38.515Z,955.93
2022-12-17T02:33:38.583Z,955.97
2022-12-17T02:34:38.469Z,955.94
2022-12-17T02:35:38.450Z,955.94
2022-12-17T02:36:38.424Z,955.96
2022-12-17T02:37:38.406Z,955.93
2022-12-17T02:38:38.379Z,955.94
2022-12-17T02:39:38.362Z,955.99
2022-12-17T02:40:38.333Z,955.96
2022-12-17T02:41:38.311Z,956.01
2022-12-17T02:42:38.287Z,955.97
2022-12-17T02:43:38.405Z,955.94
2022-12-17T02:44:38.272Z,956.01
2022-12-17T02:45:38.244Z,955.98
2022-12-17T02:46:38.198Z,955.98
2022-12-17T02:47:38.174Z,955.95
2022-12-17T02:48:38.158Z,955.97
2022-12-17T02:49:38.132Z,955.93
2022-12-17T02:50:38.109Z,955.95
2022-12-17T02:51:38.083Z,955.98
2022-12-17T02:52:38.063Z,956
2022-12-17T02:53:38.300Z,956.01
2022-12-17T02:54:38.018Z,956.01
2022-12-17T02:55:37.992Z,956
2022-12-17T02:56:37.971Z,956
2022-12-17T02:57:41.060Z,955.98
2022-12-17T02:58:37.928Z,955.96
2022-12-17T02:59:37.901Z,956
2022-12-17T03:00:37.902Z,955.97
2022-12-17T03:01:37.930Z,955.97
2022-12-17T03:02:37.998Z,955.94
2022-12-17T03:03:38.117Z,956.01
2022-12-17T03:04:38.433Z,955.98
2022-12-17T03:05:46.015Z,955.94
2022-12-17T03:06:38.386Z,955.92
2022-12-17T03:07:38.364Z,955.89
2022-12-17T03:08:38.343Z,955.91
2022-12-17T03:09:38.317Z,955.94
2022-12-17T03:10:38.295Z,955.91
2022-12-17T03:11:38.271Z,955.98
2022-12-17T03:12:38.257Z,955.95
2022-12-17T03:13:38.349Z,955.96
2022-12-17T03:14:38.206Z,956.02
2022-12-17T03:15:38.222Z,956.08
2022-12-17T03:16:38.437Z,956.04
2022-12-17T03:17:38.137Z,956.07
2022-12-17T03:18:38.117Z,956.08
2022-12-17T03:19:38.089Z,956.07
2022-12-17T03:20:38.069Z,956.1
2022-12-17T03:21:38.045Z,956.1
2022-12-17T03:22:38.023Z,956.08
2022-12-17T03:23:38.395Z,956.14
2022-12-17T03:24:37.980Z,956.1
2022-12-17T03:25:37.955Z,956.11
2022-12-17T03:26:37.937Z,956.17
2022-12-17T03:27:37.910Z,956.19
2022-12-17T03:28:37.889Z,956.16
2022-12-17T03:29:37.864Z,956.19
2022-12-17T03:30:39.038Z,956.2
2022-12-17T03:31:37.891Z,956.2
2022-12-17T03:32:37.825Z,956.27
2022-12-17T03:50:06.912Z,956.45
2022-12-17T03:51:06.862Z,956.47
2022-12-17T03:52:06.838Z,956.51
2022-12-17T03:53:06.815Z,956.46
2022-12-17T03:54:06.791Z,956.45
2022-12-17T03:55:06.770Z,956.51
2022-12-17T03:56:06.750Z,956.46
2022-12-17T03:57:08.683Z,956.48
2022-12-17T03:58:06.694Z,956.48
2022-12-17T03:59:06.673Z,956.46
2022-12-17T04:00:06.649Z,956.5
2022-12-17T04:01:06.669Z,956.46
2022-12-17T04:02:06.721Z,956.55
2022-12-17T04:03:06.612Z,956.55
2022-12-17T04:04:06.556Z,956.54
2022-12-17T04:05:06.541Z,956.46
2022-12-17T04:06:06.546Z,956.5
2022-12-17T04:07:06.492Z,956.53
2022-12-17T04:08:06.464Z,956.53
2022-12-17T04:09:06.444Z,956.58
2022-12-17T04:10:06.421Z,956.57
2022-12-17T04:11:06.397Z,956.53
2022-12-17T04:12:06.380Z,956.52
2022-12-17T04:13:06.354Z,956.52
2022-12-17T04:14:06.328Z,956.52
2022-12-17T04:15:06.306Z,956.6
2022-12-17T04:16:06.343Z,956.57
2022-12-17T04:17:06.263Z,956.59
2022-12-17T04:18:06.239Z,956.61
2022-12-17T04:19:06.216Z,956.66
2022-12-17T04:20:06.196Z,956.7
2022-12-17T04:21:06.183Z,956.68
2022-12-17T04:22:06.174Z,956.7
2022-12-17T04:23:06.135Z,956.71
2022-12-17T04:24:06.105Z,956.73
2022-12-17T04:25:06.084Z,956.76
2022-12-17T04:26:06.061Z,956.75
2022-12-17T04:27:06.041Z,956.79
2022-12-17T04:28:06.013Z,956.76
2022-12-17T04:29:05.997Z,956.78
2022-12-17T04:30:05.969Z,956.76
2022-12-17T04:31:05.999Z,956.77
2022-12-17T04:32:05.925Z,956.73
2022-12-17T04:33:05.902Z,956.7
2022-12-17T04:34:06.676Z,956.76
2022-12-17T04:35:06.655Z,956.7
2022-12-17T04:36:06.637Z,956.75
2022-12-17T04:37:06.614Z,956.81
2022-12-17T04:38:06.610Z,956.79
2022-12-17T04:39:06.565Z,956.8
2022-12-17T04:40:06.544Z,956.81
2022-12-17T04:41:06.519Z,956.81
2022-12-17T04:42:06.500Z,956.83
2022-12-17T04:43:06.473Z,956.82
2022-12-17T04:44:06.453Z,956.88
2022-12-17T04:45:06.429Z,956.84
2022-12-17T04:46:06.484Z,956.86
2022-12-17T04:47:06.387Z,956.82
2022-12-17T04:48:06.365Z,956.81
2022-12-17T04:49:06.343Z,956.83
2022-12-17T04:50:06.320Z,956.8
2022-12-17T04:51:06.294Z,956.81
2022-12-17T04:52:06.277Z,956.81
2022-12-17T04:53:06.254Z,956.83
2022-12-17T04:54:06.256Z,956.81
2022-12-17T04:55:06.207Z,956.82
2022-12-17T04:56:06.184Z,956.84
2022-12-17T04:57:06.162Z,956.86
2022-12-17T04:58:06.141Z,956.86
2022-12-17T04:59:06.115Z,956.87
2022-12-17T05:00:06.094Z,956.84
2022-12-17T05:01:06.120Z,956.86
2022-12-17T05:02:06.077Z,956.86
2022-12-17T05:03:06.064Z,956.91
2022-12-17T05:04:06.014Z,956.9
2022-12-17T05:05:05.983Z,956.91
2022-12-17T05:06:05.964Z,956.96
2022-12-17T05:07:05.938Z,956.92
2022-12-17T05:08:05.918Z,957.01
2022-12-17T05:09:05.894Z,957
2022-12-17T05:10:05.901Z,957.03
2022-12-17T05:11:05.935Z,957.04
2022-12-17T05:12:05.916Z,957.04
2022-12-17T05:13:05.893Z,957.06
2022-12-17T05:14:05.871Z,957.1
2022-12-17T05:15:05.846Z,957.09
2022-12-17T05:16:05.914Z,957.13
2022-12-17T05:17:05.803Z,957.16
2022-12-17T05:18:05.779Z,957.16
2022-12-17T05:19:05.756Z,957.16
2022-12-17T05:20:05.736Z,957.16
2022-12-17T05:21:05.715Z,957.16
2022-12-17T05:22:05.691Z,957.18
2022-12-17T05:23:05.669Z,957.2
2022-12-17T05:24:05.647Z,957.24
2022-12-17T05:25:06.540Z,957.25
2022-12-17T05:26:06.550Z,957.23
2022-12-17T05:27:06.498Z,957.26
2022-12-17T05:28:06.471Z,957.31
2022-12-17T05:29:07.218Z,957.33
2022-12-17T05:30:06.431Z,957.33
2022-12-17T05:31:06.420Z,957.36
2022-12-17T05:32:06.383Z,957.37
2022-12-17T05:33:06.363Z,957.38
2022-12-17T05:34:06.338Z,957.39
2022-12-17T05:35:06.318Z,957.42
2022-12-17T05:36:06.294Z,957.4
2022-12-17T05:37:06.281Z,957.44
2022-12-17T05:38:06.250Z,957.5
2022-12-17T05:39:06.229Z,957.54
2022-12-17T05:40:10.863Z,957.5
2022-12-17T05:41:06.185Z,957.47
2022-12-17T05:42:06.189Z,957.47
2022-12-17T05:43:06.141Z,957.51
2022-12-17T05:44:06.117Z,957.5
2022-12-17T05:45:06.097Z,957.51
2022-12-17T05:46:06.120Z,957.53
2022-12-17T05:47:06.054Z,957.51
2022-12-17T05:48:06.031Z,957.57
2022-12-17T05:49:06.009Z,957.56
2022-12-17T05:50:05.987Z,957.61
2022-12-17T05:51:05.963Z,957.63
2022-12-17T05:52:05.940Z,957.6
2022-12-17T05:53:05.919Z,957.67
2022-12-17T05:54:05.894Z,957.67
2022-12-17T05:55:05.875Z,957.68
2022-12-17T05:56:05.850Z,957.69
2022-12-17T05:57:05.832Z,957.7
2022-12-17T05:58:05.831Z,957.71
2022-12-17T05:59:05.793Z,957.72
2022-12-17T06:00:05.762Z,957.72
2022-12-17T06:01:05.743Z,957.78
2022-12-17T06:02:05.717Z,957.8
2022-12-17T06:03:05.785Z,957.76
2022-12-17T06:04:05.775Z,957.76
2022-12-17T06:05:05.651Z,957.78
2022-12-17T06:06:05.631Z,957.77
2022-12-17T06:07:05.607Z,957.79
2022-12-17T06:08:05.583Z,957.77
2022-12-17T06:09:05.564Z,957.81
2022-12-17T06:10:05.542Z,957.78
2022-12-17T06:11:05.522Z,957.79
2022-12-17T06:12:05.501Z,957.84
2022-12-17T06:13:05.476Z,957.85
2022-12-17T06:14:05.484Z,957.78
2022-12-17T06:15:05.430Z,957.86
2022-12-17T06:16:05.456Z,957.85
2022-12-17T06:17:05.390Z,957.85
2022-12-17T06:18:05.363Z,957.85
2022-12-17T06:19:05.346Z,957.91
2022-12-17T06:20:05.368Z,957.91
2022-12-17T06:21:05.298Z,957.93
2022-12-17T06:22:05.274Z,957.91
2022-12-17T06:23:05.255Z,957.93
2022-12-17T06:24:05.232Z,957.95
2022-12-17T06:25:05.210Z,957.9
2022-12-17T06:26:05.188Z,957.97
2022-12-17T06:27:05.166Z,957.94
2022-12-17T06:28:05.143Z,957.96
2022-12-17T06:29:05.123Z,958.02
2022-12-17T06:30:05.133Z,957.95
2022-12-17T06:31:05.130Z,957.98
2022-12-17T06:32:05.057Z,958
2022-12-17T06:33:05.031Z,958.03
2022-12-17T06:34:05.011Z,958
2022-12-17T06:35:04.989Z,958.07
2022-12-17T06:36:04.970Z,958.09
2022-12-17T06:37:04.943Z,958.15
2022-12-17T06:38:04.922Z,958.14
2022-12-17T06:39:04.900Z,958.12
2022-12-17T06:40:04.880Z,958.14
2022-12-17T06:41:04.855Z,958.15
2022-12-17T06:42:05.086Z,958.13
2022-12-17T06:43:04.811Z,958.1
2022-12-17T06:44:04.791Z,958.13
2022-12-17T06:45:04.768Z,958.16
2022-12-17T06:46:04.775Z,958.21
2022-12-17T06:47:04.782Z,958.22
2022-12-17T06:48:04.704Z,958.25
2022-12-17T06:49:04.677Z,958.25
2022-12-17T06:50:04.660Z,958.3
2022-12-17T06:51:04.637Z,958.33
2022-12-17T06:52:04.612Z,958.36
2022-12-17T06:53:04.592Z,958.37
2022-12-17T06:54:04.571Z,958.37
2022-12-17T06:55:04.547Z,958.4
2022-12-17T06:56:04.528Z,958.44
2022-12-17T06:57:04.502Z,958.43
2022-12-17T06:58:04.483Z,958.46
2022-12-17T06:59:04.457Z,958.48
2022-12-17T07:00:04.440Z,958.52
2022-12-17T07:01:04.520Z,958.53
2022-12-17T07:02:04.594Z,958.51
2022-12-17T07:03:04.406Z,958.52
2022-12-17T07:04:04.351Z,958.52
2022-12-17T07:05:04.325Z,958.54
2022-12-17T07:06:04.304Z,958.52
2022-12-17T07:07:04.284Z,958.53
2022-12-17T07:08:04.265Z,958.6
2022-12-17T07:09:04.240Z,958.63
2022-12-17T07:10:06.892Z,958.66
2022-12-17T07:11:04.194Z,958.64
2022-12-17T07:12:04.204Z,958.69
2022-12-17T07:13:04.149Z,958.7
2022-12-17T07:14:04.129Z,958.71
2022-12-17T07:15:04.106Z,958.75
2022-12-17T07:16:04.213Z,958.71
2022-12-17T07:17:04.062Z,958.74
2022-12-17T07:18:04.068Z,958.74
2022-12-17T07:19:04.024Z,958.74
2022-12-17T07:20:03.997Z,958.77
2022-12-17T07:21:03.974Z,958.79
2022-12-17T07:22:03.952Z,958.85
2022-12-17T07:23:03.933Z,958.83
2022-12-17T07:24:03.907Z,958.85
2022-12-17T07:25:03.887Z,958.82
2022-12-17T07:26:03.862Z,958.9
2022-12-17T07:27:03.844Z,958.88
2022-12-17T07:28:03.818Z,958.86
2022-12-17T07:29:03.797Z,958.87
2022-12-17T07:30:03.774Z,958.92
2022-12-17T07:31:03.756Z,958.96
2022-12-17T07:32:03.811Z,958.93
2022-12-17T07:33:03.709Z,958.96
2022-12-17T07:34:03.714Z,958.97
2022-12-17T07:35:03.667Z,959
2022-12-17T07:36:03.644Z,959
2022-12-17T07:37:03.622Z,959.04
2022-12-17T07:38:03.599Z,958.99
2022-12-17T07:39:03.578Z,959.02
2022-12-17T07:40:03.557Z,959.03
2022-12-17T07:41:03.534Z,959.04
2022-12-17T07:42:03.512Z,959.06
2022-12-17T07:43:03.489Z,959.06
2022-12-17T07:44:03.467Z,959.08
2022-12-17T07:45:03.446Z,959.07
2022-12-17T07:46:03.458Z,959.1
2022-12-17T07:47:03.406Z,959.09
2022-12-17T07:48:03.380Z,959.1
2022-12-17T07:49:03.359Z,959.1
2022-12-17T07:50:03.441Z,959.1
2022-12-17T07:51:03.317Z,959.1
2022-12-17T07:52:03.291Z,959.13
2022-12-17T07:53:03.271Z,959.18
2022-12-17T07:54:03.245Z,959.18
2022-12-17T07:55:03.228Z,959.22
2022-12-17T07:56:03.203Z,959.26
2022-12-17T07:57:03.184Z,959.22
2022-12-17T07:58:03.160Z,959.21
2022-12-17T07:59:03.142Z,959.25
2022-12-17T08:00:03.120Z,959.25
2022-12-17T08:01:03.196Z,959.24
2022-12-17T08:02:03.205Z,959.27
2022-12-17T08:03:03.190Z,959.23
2022-12-17T08:04:03.043Z,959.21
2022-12-17T08:05:03.011Z,959.25
2022-12-17T08:06:03.013Z,959.24
2022-12-17T08:07:08.798Z,959.29
2022-12-17T08:08:02.944Z,959.3
2022-12-17T08:09:02.919Z,959.32
2022-12-17T08:10:02.899Z,959.36
2022-12-17T08:11:02.876Z,959.36
2022-12-17T08:12:02.860Z,959.32
2022-12-17T08:13:02.835Z,959.37
2022-12-17T08:14:02.812Z,959.35
2022-12-17T08:15:02.789Z,959.43
2022-12-17T08:16:02.767Z,959.42
2022-12-17T08:17:02.839Z,959.47
2022-12-17T08:18:02.726Z,959.5
2022-12-17T08:19:02.702Z,959.49
2022-12-17T08:20:02.680Z,959.54
2022-12-17T08:21:02.661Z,959.51
2022-12-17T08:22:02.735Z,959.56
2022-12-17T08:23:02.616Z,959.53
2022-12-17T08:24:02.595Z,959.53
2022-12-17T08:25:02.575Z,959.52
2022-12-17T08:26:02.553Z,959.55
2022-12-17T08:27:02.527Z,959.6
2022-12-17T08:28:04.661Z,959.59
2022-12-17T08:29:02.484Z,959.59
2022-12-17T08:30:02.465Z,959.6
2022-12-17T08:31:02.486Z,959.55
2022-12-17T08:32:02.422Z,959.59
2022-12-17T08:33:02.398Z,959.55
2022-12-17T08:34:07.672Z,959.6
2022-12-17T08:35:02.365Z,959.63
2022-12-17T08:36:02.334Z,959.59
2022-12-17T08:37:02.314Z,959.62
2022-12-17T08:38:02.317Z,959.67
2022-12-17T08:39:02.267Z,959.71
2022-12-17T08:40:02.254Z,959.7
2022-12-17T08:41:02.223Z,959.71
2022-12-17T08:42:04.415Z,959.69
2022-12-17T08:43:02.182Z,959.71
2022-12-17T08:44:02.160Z,959.69
2022-12-17T08:45:02.159Z,959.7
2022-12-17T08:46:02.186Z,959.68
2022-12-17T08:47:02.113Z,959.71
2022-12-17T08:48:04.013Z,959.73
2022-12-17T08:49:02.069Z,959.69
2022-12-17T08:50:02.050Z,959.7
2022-12-17T08:51:02.028Z,959.7
2022-12-17T08:52:02.006Z,959.69
2022-12-17T08:53:01.984Z,959.73
2022-12-17T08:54:01.986Z,959.73
2022-12-17T08:55:01.939Z,959.69
2022-12-17T08:56:01.923Z,959.69
2022-12-17T08:57:01.901Z,959.75
2022-12-17T08:58:01.875Z,959.74
2022-12-17T08:59:01.854Z,959.74
2022-12-17T09:00:01.831Z,959.79
2022-12-17T09:01:01.873Z,959.78
2022-12-17T09:02:02.004Z,959.77
2022-12-17T09:03:01.894Z,959.81
2022-12-17T09:04:01.746Z,959.82
2022-12-17T09:05:01.724Z,959.78
2022-12-17T09:06:01.711Z,959.8
2022-12-17T09:07:01.683Z,959.84
2022-12-17T09:08:01.660Z,959.85
2022-12-17T09:09:01.646Z,959.83
2022-12-17T09:10:01.644Z,959.87
2022-12-17T09:11:01.597Z,959.91
2022-12-17T09:12:01.576Z,959.88
2022-12-17T09:13:04.846Z,959.91
2022-12-17T09:14:01.536Z,959.92
2022-12-17T09:15:01.515Z,959.95
2022-12-17T09:16:01.492Z,959.96
2022-12-17T09:17:01.565Z,959.94
2022-12-17T09:18:01.449Z,960
2022-12-17T09:19:01.430Z,960.01
2022-12-17T09:20:01.408Z,960.03
2022-12-17T09:21:01.389Z,960.06
2022-12-17T09:22:01.364Z,960.07
2022-12-17T09:23:01.345Z,960.07
2022-12-17T09:24:01.321Z,960.07
2022-12-17T09:25:01.307Z,960.05
2022-12-17T09:26:01.307Z,960.04
2022-12-17T09:27:01.259Z,960.03
2022-12-17T09:28:01.236Z,960.02
2022-12-17T09:29:01.217Z,959.98
2022-12-17T09:30:01.198Z,960
2022-12-17T09:31:01.254Z,959.96
2022-12-17T09:32:01.152Z,959.97
2022-12-17T09:33:01.134Z,959.92
2022-12-17T09:34:01.109Z,959.97
2022-12-17T09:35:01.090Z,959.91
2022-12-17T09:36:01.071Z,959.95
2022-12-17T09:37:01.052Z,959.93
2022-12-17T09:38:01.036Z,959.95
2022-12-17T09:39:01.029Z,959.98
2022-12-17T09:40:00.991Z,960.01
2022-12-17T09:41:00.977Z,960.01
2022-12-17T09:42:00.973Z,960.04
2022-12-17T09:43:00.927Z,960.02
2022-12-17T09:44:00.902Z,960.03
2022-12-17T09:45:00.892Z,960.05
2022-12-17T09:46:00.931Z,960.05
2022-12-17T09:47:00.842Z,960.1
2022-12-17T09:48:00.821Z,960.15
2022-12-17T09:49:00.799Z,960.18
2022-12-17T09:50:00.781Z,960.18
2022-12-17T09:51:00.760Z,960.09
2022-12-17T09:52:00.740Z,960.08
2022-12-17T09:53:00.718Z,960.1
2022-12-17T09:54:00.696Z,960.12
2022-12-17T09:55:01.528Z,960.15
2022-12-17T09:56:00.657Z,960.19
2022-12-17T09:57:00.634Z,960.12
2022-12-17T09:58:00.648Z,960.16
2022-12-17T09:59:00.594Z,960.15
2022-12-17T10:00:00.572Z,960.17
2022-12-17T10:01:01.117Z,960.13
2022-12-17T10:02:00.737Z,960.19
2022-12-17T10:03:00.610Z,960.2
2022-12-17T10:04:00.546Z,960.19
2022-12-17T10:05:00.468Z,960.18
2022-12-17T10:06:00.452Z,960.2
2022-12-17T10:07:00.427Z,960.21
2022-12-17T10:08:00.409Z,960.2
2022-12-17T10:09:00.388Z,960.18
2022-12-17T10:10:00.372Z,960.21
2022-12-17T10:11:00.350Z,960.2
2022-12-17T10:12:00.326Z,960.2
2022-12-17T10:13:00.308Z,960.22
2022-12-17T10:14:00.314Z,960.18
2022-12-17T10:15:00.267Z,960.19
2022-12-17T10:16:00.313Z,960.21
2022-12-17T10:17:00.223Z,960.21
2022-12-17T10:18:00.204Z,960.18
2022-12-17T10:19:00.181Z,960.18
2022-12-17T10:20:00.178Z,960.17
2022-12-17T10:21:00.140Z,960.18
2022-12-17T10:22:00.131Z,960.23
2022-12-17T10:23:00.107Z,960.26
2022-12-17T10:24:00.087Z,960.26
2022-12-17T10:25:00.058Z,960.31
2022-12-17T10:26:00.039Z,960.29
2022-12-17T10:27:00.016Z,960.18
2022-12-17T10:27:59.999Z,960.22
2022-12-17T10:28:59.974Z,960.2
2022-12-17T10:29:59.981Z,960.25
2022-12-17T10:30:59.977Z,960.22
2022-12-17T10:31:59.915Z,960.26
2022-12-17T10:32:59.897Z,960.23
2022-12-17T10:34:00.850Z,960.24
2022-12-17T10:35:05.090Z,960.26
2022-12-17T10:36:00.808Z,960.24
2022-12-17T10:37:00.786Z,960.24
2022-12-17T10:38:00.768Z,960.23
2022-12-17T10:39:00.750Z,960.24
2022-12-17T10:40:00.726Z,960.23
2022-12-17T10:41:00.704Z,960.23
2022-12-17T10:42:00.684Z,960.22
2022-12-17T10:43:00.666Z,960.19
2022-12-17T10:44:00.640Z,960.24
2022-12-17T10:45:00.622Z,960.28
2022-12-17T10:46:00.648Z,960.25
2022-12-17T10:47:00.759Z,960.25
2022-12-17T10:48:00.733Z,960.26
2022-12-17T10:49:00.716Z,960.28
2022-12-17T10:50:00.691Z,960.28
2022-12-17T10:51:00.671Z,960.26
2022-12-17T10:52:00.650Z,960.26
2022-12-17T10:53:00.629Z,960.29
2022-12-17T10:54:00.608Z,960.26
2022-12-17T10:55:00.589Z,960.32
2022-12-17T10:56:00.566Z,960.37
2022-12-17T10:57:00.548Z,960.39
2022-12-17T10:58:00.526Z,960.35
2022-12-17T10:59:00.504Z,960.36
2022-12-17T11:00:00.488Z,960.36
2022-12-17T11:01:00.465Z,960.36
2022-12-17T11:02:00.607Z,960.33
2022-12-17T11:03:00.650Z,960.36
2022-12-17T11:04:00.452Z,960.34
2022-12-17T11:05:00.379Z,960.37
2022-12-17T11:06:00.359Z,960.37
2022-12-17T11:07:00.336Z,960.38
2022-12-17T11:08:00.317Z,960.4
2022-12-17T11:09:00.294Z,960.42
2022-12-17T11:10:02.422Z,960.43
2022-12-17T11:11:00.253Z,960.4
2022-12-17T11:12:04.208Z,960.41
2022-12-17T11:13:00.212Z,960.37
2022-12-17T11:14:00.188Z,960.38
2022-12-17T11:15:00.179Z,960.38
2022-12-17T11:16:00.173Z,960.38
2022-12-17T11:17:00.130Z,960.4
2022-12-17T11:18:00.127Z,960.37
2022-12-17T11:19:00.196Z,960.4
2022-12-17T11:20:00.064Z,960.36
2022-12-17T11:21:00.050Z,960.3
2022-12-17T11:22:00.024Z,960.33
2022-12-17T11:23:00.004Z,960.35
2022-12-17T11:23:59.979Z,960.33
2022-12-17T11:24:59.960Z,960.33
2022-12-17T11:25:59.940Z,960.38
2022-12-17T11:26:59.918Z,960.39
2022-12-17T11:27:59.896Z,960.37
2022-12-17T11:28:59.875Z,960.39
2022-12-17T11:29:59.856Z,960.4
2022-12-17T11:30:59.869Z,960.39
2022-12-17T11:31:59.814Z,960.44
2022-12-17T11:32:59.791Z,960.4
2022-12-17T11:33:59.799Z,960.41
2022-12-17T11:34:59.748Z,960.39
2022-12-17T11:35:59.730Z,960.37
2022-12-17T11:36:59.707Z,960.43
2022-12-17T11:38:00.666Z,960.44
2022-12-17T11:39:00.689Z,960.47
2022-12-17T11:40:00.628Z,960.41
2022-12-17T11:41:00.602Z,960.43
2022-12-17T11:42:00.585Z,960.44
2022-12-17T11:43:00.564Z,960.49
2022-12-17T11:44:00.541Z,960.46
2022-12-17T11:45:00.518Z,960.46
2022-12-17T11:46:00.524Z,960.45
2022-12-17T11:47:00.507Z,960.49
2022-12-17T11:48:00.457Z,960.52
2022-12-17T11:49:00.538Z,960.55
2022-12-17T11:50:00.455Z,960.49
2022-12-17T11:51:00.393Z,960.5
2022-12-17T11:52:00.375Z,960.52
2022-12-17T11:53:00.353Z,960.55
2022-12-17T11:54:00.332Z,960.57
2022-12-17T11:55:00.311Z,960.59
2022-12-17T11:56:00.292Z,960.56
2022-12-17T11:57:00.265Z,960.6
2022-12-17T11:58:00.249Z,960.64
2022-12-17T11:59:00.292Z,960.57
2022-12-17T12:00:03.941Z,960.58
2022-12-17T12:01:00.181Z,960.59
2022-12-17T12:02:00.245Z,960.64
2022-12-17T12:03:00.284Z,960.57
2022-12-17T12:04:00.225Z,960.64
2022-12-17T12:05:00.114Z,960.63
2022-12-17T12:06:00.221Z,960.61
2022-12-17T12:07:00.068Z,960.6
2022-12-17T12:08:00.035Z,960.63
2022-12-17T12:09:00.151Z,960.62
2022-12-17T12:09:59.993Z,960.62
2022-12-17T12:10:59.975Z,960.61
2022-12-17T12:11:59.953Z,960.62
2022-12-17T12:12:59.930Z,960.58
2022-12-17T12:13:59.913Z,960.56
2022-12-17T12:14:59.889Z,960.59
2022-12-17T12:15:59.932Z,960.64
2022-12-17T12:16:59.846Z,960.62
2022-12-17T12:17:59.825Z,960.62
2022-12-17T12:18:59.880Z,960.62
2022-12-17T12:19:59.785Z,960.61
2022-12-17T12:20:59.760Z,960.56
2022-12-17T12:21:59.767Z,960.55
2022-12-17T12:22:59.719Z,960.62
2022-12-17T12:23:59.696Z,960.53
2022-12-17T12:24:59.676Z,960.57
2022-12-17T12:25:59.653Z,960.56
2022-12-17T12:26:59.639Z,960.58
2022-12-17T12:27:59.612Z,960.56
2022-12-17T12:28:59.695Z,960.56
2022-12-17T12:29:59.569Z,960.56
2022-12-17T12:30:59.550Z,960.58
2022-12-17T12:31:59.638Z,960.6
2022-12-17T12:32:59.507Z,960.6
2022-12-17T12:33:59.484Z,960.59
2022-12-17T12:34:59.470Z,960.62
2022-12-17T12:35:59.444Z,960.64
2022-12-17T12:36:59.422Z,960.6
2022-12-17T12:37:59.424Z,960.61
2022-12-17T12:38:59.381Z,960.67
2022-12-17T12:39:59.361Z,960.68
2022-12-17T12:40:59.341Z,960.66
2022-12-17T12:41:59.315Z,960.64
2022-12-17T12:42:59.296Z,960.69
2022-12-17T12:43:59.275Z,960.7
2022-12-17T12:44:59.257Z,960.69
2022-12-17T12:45:59.310Z,960.73
2022-12-17T12:46:59.212Z,960.72
2022-12-17T12:47:59.188Z,960.75
2022-12-17T12:48:59.171Z,960.8